EPKK/KRK METAR and TAF weather

Enter ICAO airport designator
Station Type Date Time Source
EPKK METAR 2018/10/16 21:30 UTC NOAA

EPKK 162130Z VRB02KT CAVOK 10/07 Q1022


Station Type Date Time Source
EPKK Decoded METAR 2018/10/16 21:30 UTC NOAA

Krakow, Poland (EPKK) 50-05N 019-48E 237M
Oct 16, 2018 - 05:30 PM EDT / 2018.10.16 2130 UTC
Wind: Variable at 2 MPH (2 KT):0
Visibility: greater than 7 mile(s):0
Temperature: 50 F (10 C)
Dew Point: 44 F (7 C)
Relative Humidity: 81%
Pressure (altimeter): 30.18 in. Hg (1022 hPa)
ob: EPKK 162130Z VRB02KT CAVOK 10/07 Q1022
cycle: 21

Station Type Date Time Source
EPKK TAF 2018/10/16 21:36 UTC NOAA

TAF EPKK 162030Z 1621/1721 04004KT CAVOK PROB40 1703/1707 2000 BR


Example: see airport list